Time;durP1;ratioP1;P1;durP2;ratioP2;P2;SDS_P1;SDS_P2;PMS_P1;PMS_P2;Temp;Humidity;BMP_temperature;BMP_pressure;BME280_temperature;BME280_humidity;BME280_pressure;Samples;Min_cycle;Max_cycle;Signal;HPM_P1;HPM_P2
2021/03/28 00:01:08;;;;;;;6.97;3.15;;;11.30;62.60;;;;;;5066891;28;20040;-62
2021/03/28 00:03:44;;;;;;;5.35;2.45;;;11.30;62.60;;;;;;5066302;28;20037;-62
2021/03/28 00:06:20;;;;;;;6.13;2.83;;;11.30;62.70;;;;;;5066673;28;20076;-64
2021/03/28 00:09:08;;;;;;;6.35;3.05;;;11.30;62.60;;;;;;5066174;28;20071;-62
2021/03/28 00:11:49;;;;;;;4.80;2.70;;;11.30;62.70;;;;;;5048498;28;20426;-63
2021/03/28 00:14:15;;;;;;;10.98;3.22;;;11.30;62.70;;;;;;5066277;28;20098;-62
2021/03/28 00:16:47;;;;;;;9.43;3.28;;;11.30;62.60;;;;;;5066465;28;20131;-61
2021/03/28 00:19:39;;;;;;;8.30;2.80;;;11.30;62.80;;;;;;5048379;28;20030;-62
2021/03/28 00:22:20;;;;;;;7.43;2.63;;;11.30;62.80;;;;;;5062944;28;20101;-63
2021/03/28 00:24:58;;;;;;;8.90;3.15;;;11.30;62.80;;;;;;5066037;28;20118;-63
2021/03/28 00:27:28;;;;;;;7.53;2.65;;;11.30;62.90;;;;;;5066449;28;20063;-63
2021/03/28 00:30:21;;;;;;;5.93;2.95;;;11.30;62.80;;;;;;5048762;28;20075;-61
2021/03/28 00:32:53;;;;;;;5.28;2.58;;;11.30;62.80;;;;;;5066002;28;20055;-62
2021/03/28 00:35:28;;;;;;;3.97;2.50;;;11.30;62.80;;;;;;5047822;28;20461;-62
2021/03/28 00:38:38;;;;;;;6.15;2.95;;;11.30;62.80;;;;;;5066025;28;20040;-63
2021/03/28 00:41:41;;;;;;;7.60;2.83;;;11.30;62.80;;;;;;5056698;28;20537;-62
2021/03/28 00:44:20;;;;;;;7.60;2.78;;;11.30;62.80;;;;;;5066054;28;20198;-61
2021/03/28 00:46:51;;;;;;;6.28;2.78;;;11.30;62.80;;;;;;5048369;28;20072;-62
2021/03/28 00:49:25;;;;;;;5.13;2.10;;;11.20;62.60;;;;;;5066132;28;20521;-61
2021/03/28 00:52:01;;;;;;;7.00;2.53;;;11.30;62.80;;;;;;5048228;28;20403;-62
2021/03/28 00:54:55;;;;;;;8.40;2.97;;;11.30;62.80;;;;;;5065956;28;20028;-62
2021/03/28 00:57:42;;;;;;;5.05;2.22;;;11.20;62.70;;;;;;5047847;28;20036;-61
2021/03/28 01:00:12;;;;;;;;;;;11.30;62.80;;;;;;5066938;28;20033;-63
2021/03/28 01:03:01;;;;;;;7.10;2.70;;;11.20;62.60;;;;;;5047517;28;19908;-61
2021/03/28 01:05:39;;;;;;;3.67;2.22;;;11.20;62.60;;;;;;5065533;28;20048;-63
2021/03/28 01:08:17;;;;;;;7.97;2.20;;;11.20;62.60;;;;;;5065672;28;20040;-63
2021/03/28 01:11:05;;;;;;;7.28;2.45;;;11.20;62.70;;;;;;5065477;28;20071;-63
2021/03/28 01:13:52;;;;;;;8.40;2.70;;;11.20;62.70;;;;;;5066091;28;20036;-61
2021/03/28 01:16:52;;;;;;;8.00;2.60;;;11.20;62.70;;;;;;5065145;28;20114;-62
2021/03/28 01:19:37;;;;;;;8.93;2.85;;;11.20;62.80;;;;;;5065822;28;20068;-63
2021/03/28 01:22:06;;;;;;;4.63;2.53;;;11.20;62.80;;;;;;5047342;28;20047;-63
2021/03/28 01:24:49;;;;;;;7.40;2.58;;;11.20;62.80;;;;;;5047440;28;20136;-62
2021/03/28 01:27:33;;;;;;;6.70;2.55;;;11.20;62.80;;;;;;5065457;28;20037;-62
2021/03/28 01:30:09;;;;;;;8.10;2.90;;;11.20;62.90;;;;;;5065670;28;20036;-65
2021/03/28 01:32:35;;;;;;;4.72;2.70;;;11.20;62.80;;;;;;5074172;23;20116;-74
2021/03/28 01:35:11;;;;;;;7.97;2.83;;;11.20;62.80;;;;;;5068552;28;20032;-75
2021/03/28 01:37:46;;;;;;;6.03;2.38;;;11.10;62.60;;;;;;5066253;28;20427;-74
2021/03/28 01:40:34;;;;;;;4.78;2.78;;;11.10;62.60;;;;;;5051852;28;20047;-75
2021/03/28 01:43:08;;;;;;;7.70;3.15;;;11.20;62.90;;;;;;5069502;28;20060;-73
2021/03/28 01:46:00;;;;;;;12.13;2.92;;;11.10;62.60;;;;;;5049565;28;20053;-74
2021/03/28 01:48:47;;;;;;;7.70;2.97;;;11.10;62.70;;;;;;5029880;28;20129;-90
2021/03/28 01:51:35;;;;;;;4.70;2.42;;;11.10;62.70;;;;;;5015453;28;20056;-89
2021/03/28 01:54:07;;;;;;;5.30;2.22;;;11.10;62.70;;;;;;5033815;28;20044;-87
2021/03/28 01:56:51;;;;;;;3.85;2.55;;;11.10;62.70;;;;;;5017980;28;20029;-90
2021/03/28 01:59:50;;;;;;;7.30;2.70;;;11.10;62.70;;;;;;5018649;28;20476;-88
2021/03/28 02:02:35;;;;;;;9.85;2.92;;;11.10;62.70;;;;;;5004724;28;20507;-89
2021/03/28 02:05:33;;;;;;;6.03;2.95;;;11.10;62.80;;;;;;5034538;28;20071;-87
2021/03/28 02:08:17;;;;;;;4.30;2.33;;;11.10;62.80;;;;;;5015635;28;20369;-88
2021/03/28 02:11:03;;;;;;;6.32;2.88;;;11.10;62.70;;;;;;5018781;28;20044;-90
2021/03/28 02:13:32;;;;;;;12.63;3.00;;;11.10;62.80;;;;;;5035606;28;20030;-92
2021/03/28 02:16:18;;;;;;;5.38;3.15;;;11.10;62.70;;;;;;5036536;28;20040;-89
2021/03/28 02:18:44;;;;;;;8.00;2.53;;;11.10;62.80;;;;;;5035003;28;20067;-89
2021/03/28 02:21:21;;;;;;;6.60;2.78;;;11.10;62.70;;;;;;5017700;28;20041;-90
2021/03/28 02:23:59;;;;;;;7.07;2.20;;;11.10;62.80;;;;;;5018260;28;20037;-90
2021/03/28 02:26:31;;;;;;;5.10;2.15;;;11.10;62.80;;;;;;5034991;28;20135;-88
2021/03/28 02:29:09;;;;;;;5.60;2.50;;;11.10;62.80;;;;;;5026621;28;20496;-85
2021/03/28 02:32:11;;;;;;;9.52;2.72;;;11.10;62.80;;;;;;5000600;28;20505;-87
2021/03/28 02:34:54;;;;;;;6.57;2.35;;;11.10;62.80;;;;;;4998586;28;20037;-87
2021/03/28 02:37:35;;;;;;;9.57;3.33;;;11.10;62.70;;;;;;4997166;28;20041;-87
2021/03/28 02:40:16;;;;;;;6.88;3.42;;;11.10;62.70;;;;;;5025654;28;20068;-87
2021/03/28 02:43:13;;;;;;;5.28;2.55;;;11.10;62.80;;;;;;5033175;28;20033;-86
2021/03/28 02:45:46;;;;;;;6.05;2.35;;;11.10;62.80;;;;;;5032864;28;20050;-86
2021/03/28 02:48:17;;;;;;;5.70;2.88;;;11.10;62.70;;;;;;5033020;28;20052;-86
2021/03/28 02:51:05;;;;;;;5.25;2.80;;;11.10;62.70;;;;;;5032959;28;20045;-86
2021/03/28 02:54:07;;;;;;;5.40;3.05;;;11.10;62.80;;;;;;5016606;28;20037;-86
2021/03/28 02:56:33;;;;;;;7.30;2.95;;;11.10;62.80;;;;;;5016733;28;20033;-87
2021/03/28 02:59:24;;;;;;;8.80;3.25;;;11.10;62.70;;;;;;5015672;28;20037;-87
2021/03/28 03:02:21;;;;;;;7.80;2.75;;;11.10;62.80;;;;;;5016774;28;20038;-88
2021/03/28 03:05:16;;;;;;;7.18;2.90;;;11.10;62.80;;;;;;5016486;28;20619;-89
2021/03/28 03:07:59;;;;;;;7.15;2.55;;;11.10;62.80;;;;;;5033960;28;20038;-88
2021/03/28 03:29:48;;;;;;;4.80;2.47;;;11.10;62.60;;;;;;5031903;28;20087;-86
2021/03/28 03:33:17;;;;;;;9.00;3.47;;;11.00;62.50;;;;;;5030085;28;20374;-85
2021/03/28 03:35:52;;;;;;;12.95;3.10;;;11.00;62.50;;;;;;5013315;28;20413;-87
2021/03/28 03:38:18;;;;;;;7.85;2.47;;;11.00;62.50;;;;;;5031707;28;20042;-86
2021/03/28 03:41:12;;;;;;;8.05;3.28;;;11.00;62.60;;;;;;5031036;28;20033;-90
2021/03/28 03:44:14;;;;;;;5.85;2.47;;;11.00;62.70;;;;;;4987253;28;20539;-86
2021/03/28 03:46:53;;;;;;;7.03;3.05;;;11.00;62.70;;;;;;5043905;28;20037;-85
2021/03/28 03:49:41;;;;;;;6.80;3.42;;;11.00;62.70;;;;;;5065534;28;20029;-87
2021/03/28 03:52:51;;;;;;;10.48;2.88;;;11.00;62.70;;;;;;5035093;28;20043;-85
2021/03/28 03:55:26;;;;;;;10.15;3.38;;;11.00;62.80;;;;;;4971475;28;20042;-87
2021/03/28 03:58:05;;;;;;;7.55;2.92;;;11.00;63.20;;;;;;4955438;28;20073;-88
2021/03/28 04:00:47;;;;;;;6.15;2.33;;;11.10;62.90;;;;;;4998050;28;20083;-86
2021/03/28 04:08:28;;;;;;;7.25;2.67;;;11.00;62.80;;;;;;4971472;28;20049;-87
2021/03/28 04:11:28;;;;;;;8.00;3.25;;;11.00;62.70;;;;;;5006923;28;20041;-86
2021/03/28 04:14:06;;;;;;;7.75;3.05;;;11.00;62.70;;;;;;5034762;28;20040;-87
2021/03/28 04:16:57;;;;;;;7.50;2.67;;;11.10;62.90;;;;;;5034854;28;20060;-88
2021/03/28 04:19:36;;;;;;;9.20;3.15;;;11.00;62.80;;;;;;5034618;28;20477;-87
2021/03/28 04:22:29;;;;;;;7.88;3.33;;;11.10;62.90;;;;;;5034386;28;20037;-88
2021/03/28 04:25:20;;;;;;;5.13;3.27;;;11.10;63.00;;;;;;5018117;28;20045;-86
2021/03/28 04:28:24;;;;;;;8.32;3.05;;;11.10;63.00;;;;;;5034616;28;20753;-87
2021/03/28 04:30:56;;;;;;;10.43;2.90;;;11.10;63.00;;;;;;5018419;28;20064;-85
2021/03/28 05:59:55;;;;;;;15.90;3.80;;;11.00;63.70;;;;;;5051261;28;20554;-88
2021/03/28 06:02:50;;;;;;;8.00;3.67;;;11.20;64.50;;;;;;5022602;28;20049;-89
2021/03/28 06:05:52;;;;;;;15.77;4.10;;;11.40;65.10;;;;;;5027888;28;20140;-87
2021/03/28 06:08:24;;;;;;;6.53;2.90;;;11.50;65.80;;;;;;5016858;28;20448;-85
2021/03/28 06:11:15;;;;;;;5.75;3.10;;;11.70;65.90;;;;;;5028759;28;20056;-89
2021/03/28 06:14:18;;;;;;;6.00;2.88;;;11.80;66.80;;;;;;5039285;28;20075;-90
2021/03/28 06:17:19;;;;;;;8.07;2.75;;;12.00;67.30;;;;;;5052249;28;20560;-86
2021/03/28 06:20:04;;;;;;;14.57;3.33;;;12.10;67.50;;;;;;5059321;28;20036;-86
2021/03/28 06:23:07;;;;;;;10.88;3.75;;;12.20;67.50;;;;;;5049030;28;20029;-88
2021/03/28 06:25:57;;;;;;;15.32;3.55;;;12.40;68.30;;;;;;5038225;28;20068;-90
2021/03/28 06:29:03;;;;;;;9.98;2.95;;;12.40;68.20;;;;;;5064439;28;20464;-87
2021/03/28 06:31:57;;;;;;;10.88;3.72;;;12.60;68.80;;;;;;5030703;28;20044;-91
2021/03/28 06:34:38;;;;;;;13.70;3.33;;;12.80;69.10;;;;;;5012300;28;20029;-85
2021/03/28 06:37:39;;;;;;;11.80;3.63;;;12.80;69.00;;;;;;5012739;28;20056;-84
2021/03/28 06:40:39;;;;;;;5.90;2.78;;;12.90;69.50;;;;;;4998645;28;20029;-87
2021/03/28 06:43:30;;;;;;;9.20;2.95;;;12.90;69.60;;;;;;5017920;28;20496;-86
2021/03/28 06:46:11;;;;;;;13.52;3.55;;;13.00;69.70;;;;;;5033559;28;20690;-84
2021/03/28 06:48:46;;;;;;;13.07;3.92;;;13.10;69.90;;;;;;5034524;28;20041;-91
2021/03/28 06:51:42;;;;;;;7.63;2.78;;;13.20;70.20;;;;;;5021465;28;20068;-93
2021/03/28 08:35:08;;;;;;;8.10;2.95;;;14.70;70.20;;;;;;5031140;28;20361;-94
2021/03/28 08:37:41;;;;;;;7.95;3.40;;;14.70;69.80;;;;;;5016925;28;20090;-92
2021/03/28 08:41:55;;;;;;;7.55;2.85;;;14.70;69.60;;;;;;5056014;28;20127;-90
2021/03/28 09:29:43;;;;;;;3.03;2.03;;;14.50;67.90;;;;;;4968217;28;20057;-90
2021/03/28 09:32:27;;;;;;;9.13;2.42;;;14.60;67.80;;;;;;4967493;28;20108;-88
2021/03/28 09:35:35;;;;;;;7.80;1.95;;;14.60;67.60;;;;;;5045445;28;20064;-87
2021/03/28 09:38:12;;;;;;;7.70;2.67;;;14.70;67.70;;;;;;4969722;28;20039;-88
2021/03/28 09:40:58;;;;;;;4.20;1.55;;;14.70;67.50;;;;;;5009560;28;20045;-88
2021/03/28 09:43:38;;;;;;;6.13;2.22;;;14.70;67.40;;;;;;5048786;28;20100;-86
2021/03/28 09:46:32;;;;;;;5.75;2.10;;;14.70;67.40;;;;;;5046674;28;20138;-88
2021/03/28 09:49:17;;;;;;;7.82;2.92;;;14.80;67.50;;;;;;5049111;28;20033;-87
2021/03/28 09:52:33;;;;;;;7.78;3.33;;;14.80;67.40;;;;;;5017299;28;20095;-92
2021/03/28 09:55:29;;;;;;;5.07;2.38;;;14.80;67.60;;;;;;4988330;28;20056;-92
2021/03/28 09:58:06;;;;;;;7.82;2.70;;;14.90;68.20;;;;;;5015686;28;20415;-92
2021/03/28 10:00:43;;;;;;;13.65;4.00;;;15.00;67.90;;;;;;5016214;28;20550;-89
2021/03/28 10:03:30;;;;;;;4.72;2.80;;;15.20;68.10;;;;;;5016000;28;20053;-92
2021/03/28 10:06:25;;;;;;;8.43;2.70;;;15.30;68.10;;;;;;5016754;28;20052;-92
2021/03/28 10:09:10;;;;;;;6.72;3.28;;;15.40;68.00;;;;;;5019559;28;20038;-94
2021/03/28 10:11:43;;;;;;;5.28;2.58;;;15.50;68.10;;;;;;4996648;28;20034;-93
2021/03/28 10:14:43;;;;;;;4.57;2.53;;;15.60;68.10;;;;;;4999005;28;20625;-92
2021/03/28 10:17:43;;;;;;;6.55;3.00;;;15.60;67.90;;;;;;5001282;28;20076;-94
2021/03/28 10:20:36;;;;;;;6.68;2.45;;;15.70;68.00;;;;;;4997642;28;20030;-93
2021/03/28 10:23:23;;;;;;;5.97;2.97;;;15.70;67.90;;;;;;5038737;28;20038;-92
2021/03/28 10:26:05;;;;;;;4.43;2.40;;;15.80;68.00;;;;;;5016577;28;20052;-93
2021/03/28 10:28:46;;;;;;;8.57;2.75;;;15.80;67.90;;;;;;5033741;28;20033;-90
2021/03/28 10:31:26;;;;;;;7.32;2.70;;;15.90;68.00;;;;;;5000312;28;20037;-91
2021/03/28 10:34:40;;;;;;;4.75;2.25;;;15.90;67.80;;;;;;5017210;28;20041;-92
2021/03/28 10:37:33;;;;;;;5.85;2.45;;;15.90;67.70;;;;;;4976910;28;20468;-88
2021/03/28 10:40:19;;;;;;;7.80;2.55;;;16.00;67.80;;;;;;5001162;28;20041;-86
2021/03/28 10:42:49;;;;;;;3.97;2.22;;;16.00;67.60;;;;;;5003155;28;20091;-91
2021/03/28 10:45:34;;;;;;;5.20;2.47;;;16.00;67.60;;;;;;5016245;28;20547;-92
2021/03/28 10:48:37;;;;;;;6.50;2.28;;;16.10;67.70;;;;;;5036777;28;20169;-92
2021/03/28 10:51:15;;;;;;;6.07;2.75;;;16.10;67.60;;;;;;5021500;28;20041;-88
2021/03/28 10:53:55;;;;;;;4.43;2.28;;;16.20;67.70;;;;;;5035119;28;20131;-88
2021/03/28 10:56:43;;;;;;;5.47;2.33;;;16.20;67.60;;;;;;4996222;28;20041;-91
2021/03/28 10:59:42;;;;;;;5.78;1.98;;;16.20;67.50;;;;;;5013581;28;20061;-86
2021/03/28 11:02:38;;;;;;;4.38;2.15;;;16.30;67.60;;;;;;5042465;28;20041;-96
2021/03/28 11:05:35;;;;;;;5.32;1.83;;;16.30;67.50;;;;;;5032942;28;20048;-87
2021/03/28 11:08:28;;;;;;;4.32;2.15;;;16.30;67.40;;;;;;5031815;28;20037;-89
2021/03/28 11:11:28;;;;;;;3.67;1.95;;;16.40;67.50;;;;;;5016491;28;20119;-87
2021/03/28 11:14:16;;;;;;;4.28;1.80;;;16.40;67.30;;;;;;5031765;28;20033;-85
2021/03/28 11:16:48;;;;;;;4.18;2.05;;;16.50;67.40;;;;;;5032417;28;20033;-85
2021/03/28 11:19:52;;;;;;;4.82;2.60;;;16.50;67.30;;;;;;5032594;28;20033;-92
2021/03/28 11:22:47;;;;;;;4.18;2.45;;;16.50;67.20;;;;;;5016098;28;20043;-87
2021/03/28 11:25:28;;;;;;;5.97;2.20;;;16.60;67.30;;;;;;5048462;28;20048;-87
2021/03/28 11:27:54;;;;;;;5.20;2.10;;;16.70;67.10;;;;;;5032457;28;20045;-94
2021/03/28 11:30:26;;;;;;;3.72;1.70;;;16.70;66.90;;;;;;5034630;28;20025;-91
2021/03/28 11:32:58;;;;;;;4.43;1.75;;;16.70;66.50;;;;;;5051523;28;20108;-89
2021/03/28 11:35:33;;;;;;;2.88;1.60;;;16.60;66.20;;;;;;5035610;28;20029;-89
2021/03/28 11:38:17;;;;;;;7.45;2.15;;;16.60;66.00;;;;;;5048632;28;20044;-87
2021/03/28 11:41:06;;;;;;;7.10;2.25;;;16.60;66.20;;;;;;5031750;28;20033;-89
2021/03/28 11:43:37;;;;;;;7.47;1.88;;;16.60;66.50;;;;;;5035026;28;20091;-87
2021/03/28 11:46:08;;;;;;;8.13;2.22;;;16.70;66.70;;;;;;5031889;28;20045;-86
2021/03/28 11:48:49;;;;;;;4.20;1.98;;;16.80;66.90;;;;;;5033556;28;20138;-87
2021/03/28 11:51:33;;;;;;;4.60;2.03;;;16.80;66.90;;;;;;5033000;28;20068;-89
2021/03/28 11:54:12;;;;;;;8.45;4.20;;;17.00;67.10;;;;;;5030338;28;20033;-86
2021/03/28 11:56:46;;;;;;;17.30;11.73;;;17.10;67.10;;;;;;5048454;28;20400;-88
2021/03/28 11:59:34;;;;;;;9.40;7.75;;;17.10;66.90;;;;;;5042183;28;20044;-88
2021/03/28 12:02:03;;;;;;;10.18;7.07;;;17.20;66.90;;;;;;5048331;28;20140;-88
2021/03/28 12:04:36;;;;;;;11.93;8.00;;;17.30;66.90;;;;;;5048388;28;20041;-86
2021/03/28 12:07:25;;;;;;;9.98;6.75;;;17.40;67.00;;;;;;5047993;28;20064;-85
2021/03/28 12:09:55;;;;;;;11.23;6.47;;;17.50;67.00;;;;;;5048329;28;20037;-88
2021/03/28 12:12:25;;;;;;;13.02;6.95;;;17.60;67.10;;;;;;5030413;28;20487;-85
2021/03/28 12:14:52;;;;;;;10.25;5.88;;;17.60;67.00;;;;;;5014214;28;20516;-90
2021/03/28 12:17:25;;;;;;;7.93;6.22;;;17.80;67.20;;;;;;5031023;28;20037;-88
2021/03/28 12:19:58;;;;;;;12.07;6.63;;;17.80;67.00;;;;;;5031466;28;20037;-90
2021/03/28 12:22:43;;;;;;;10.47;5.93;;;17.90;67.10;;;;;;5030830;28;20037;-90
2021/03/28 12:25:18;;;;;;;11.55;6.47;;;17.90;67.00;;;;;;5031234;28;20278;-88
2021/03/28 12:27:56;;;;;;;8.13;6.05;;;18.00;67.00;;;;;;5014036;28;20112;-86
2021/03/28 12:30:30;;;;;;;10.38;5.80;;;18.00;66.90;;;;;;5015674;28;20456;-88
2021/03/28 12:33:15;;;;;;;8.40;5.03;;;18.00;66.80;;;;;;5049303;28;20051;-87
2021/03/28 12:35:47;;;;;;;11.30;5.40;;;18.10;66.80;;;;;;5030638;28;20044;-85
2021/03/28 12:38:34;;;;;;;10.00;5.25;;;18.10;66.80;;;;;;5031005;28;20063;-87
2021/03/28 12:41:12;;;;;;;8.50;5.32;;;18.20;66.90;;;;;;5033305;28;20043;-84
2021/03/28 12:43:57;;;;;;;10.57;5.65;;;18.20;66.60;;;;;;5015113;28;20045;-87
2021/03/28 12:50:01;;;;;;;8.32;5.00;;;18.20;66.50;;;;;;4944005;28;20054;-64
2021/03/28 12:52:48;;;;;;;9.07;5.05;;;18.20;66.30;;;;;;4947522;28;20038;-61
2021/03/28 12:55:29;;;;;;;10.48;5.03;;;18.20;66.40;;;;;;4954995;28;20126;-66
2021/03/28 12:58:15;;;;;;;10.82;4.78;;;18.20;66.30;;;;;;4928066;28;20086;-63
2021/03/28 13:00:55;;;;;;;6.70;4.60;;;18.10;66.10;;;;;;4935326;28;20144;-65
2021/03/28 13:03:42;;;;;;;10.00;4.43;;;18.10;66.10;;;;;;4943365;28;20059;-65
2021/03/28 13:06:53;;;;;;;7.63;4.03;;;18.10;66.10;;;;;;4949652;28;20078;-64
2021/03/28 13:09:36;;;;;;;7.72;4.40;;;18.10;66.20;;;;;;4947720;28;20142;-64
2021/03/28 13:12:08;;;;;;;11.77;4.53;;;18.10;66.20;;;;;;4933533;28;20039;-65
2021/03/28 13:14:44;;;;;;;8.45;4.22;;;18.10;66.20;;;;;;4934003;28;20505;-64
2021/03/28 13:17:13;;;;;;;8.20;4.32;;;18.10;66.20;;;;;;4964464;28;20074;-61
2021/03/28 13:19:43;;;;;;;9.45;3.97;;;18.10;66.20;;;;;;4966486;28;20493;-64
2021/03/28 13:22:24;;;;;;;6.70;3.72;;;18.10;66.10;;;;;;4933537;28;20047;-61
2021/03/28 13:25:16;;;;;;;8.93;3.53;;;18.10;66.10;;;;;;4933461;28;20051;-64
2021/03/28 13:28:08;;;;;;;10.00;4.50;;;18.20;66.20;;;;;;4957933;28;20050;-64
2021/03/28 13:30:42;;;;;;;9.52;3.45;;;18.20;66.10;;;;;;4964404;28;20124;-64
2021/03/28 13:33:20;;;;;;;9.52;3.97;;;18.20;66.10;;;;;;4965862;28;20494;-65
2021/03/28 13:35:49;;;;;;;11.93;4.28;;;18.20;66.00;;;;;;4947253;28;20030;-64
2021/03/28 13:38:25;;;;;;;11.35;4.05;;;18.20;66.00;;;;;;4988110;28;20047;-62
2021/03/28 13:40:56;;;;;;;8.05;4.18;;;18.20;65.90;;;;;;4965015;28;20066;-63
2021/03/28 13:43:35;;;;;;;10.88;4.03;;;18.30;66.10;;;;;;4965230;28;20073;-61
2021/03/28 13:46:09;;;;;;;11.73;4.50;;;18.30;66.00;;;;;;4949221;28;20054;-62
2021/03/28 13:48:36;;;;;;;11.38;5.05;;;18.30;65.80;;;;;;4961672;28;20119;-64
2021/03/28 13:51:23;;;;;;;10.18;3.83;;;18.40;65.90;;;;;;4972393;28;20049;-63
2021/03/28 13:54:06;;;;;;;5.80;3.40;;;18.40;65.80;;;;;;4972982;28;20125;-64
2021/03/28 13:56:46;;;;;;;10.23;3.50;;;18.40;65.90;;;;;;4988674;28;20035;-63
2021/03/28 13:59:17;;;;;;;9.73;3.53;;;18.50;65.90;;;;;;4982237;28;20035;-63
2021/03/28 14:01:58;;;;;;;9.02;4.10;;;18.60;66.10;;;;;;4968626;28;20074;-65
2021/03/28 14:04:25;;;;;;;9.43;3.10;;;18.70;66.20;;;;;;4965347;28;20050;-64
2021/03/28 14:07:07;;;;;;;12.30;3.28;;;18.80;66.30;;;;;;4965475;28;20062;-65
2021/03/28 14:09:37;;;;;;;10.05;3.20;;;19.00;66.40;;;;;;4965806;28;20091;-60
2021/03/28 14:12:35;;;;;;;3.92;2.53;;;19.00;66.20;;;;;;4949812;29;20071;-65
2021/03/28 14:15:23;;;;;;;3.72;2.38;;;19.10;66.10;;;;;;4969588;28;20047;-65
2021/03/28 14:18:11;;;;;;;7.30;2.95;;;19.20;66.00;;;;;;4952957;28;20490;-65
2021/03/28 14:20:41;;;;;;;6.05;2.58;;;19.20;65.90;;;;;;4969177;28;20046;-65
2021/03/28 14:23:11;;;;;;;6.97;3.35;;;19.20;65.80;;;;;;4968546;28;20039;-65
2021/03/28 14:25:54;;;;;;;8.63;2.63;;;19.30;65.90;;;;;;4968198;28;20043;-65
2021/03/28 14:28:26;;;;;;;6.13;2.63;;;19.20;65.70;;;;;;4968656;28;20097;-65
2021/03/28 14:31:04;;;;;;;5.95;2.65;;;19.20;65.70;;;;;;4969072;28;20042;-65
2021/03/28 14:33:57;;;;;;;7.57;3.13;;;19.20;65.70;;;;;;4967804;28;20038;-63
2021/03/28 14:36:51;;;;;;;7.88;3.10;;;19.20;65.80;;;;;;4947739;28;20039;-62
2021/03/28 14:39:57;;;;;;;12.90;3.47;;;19.20;65.80;;;;;;4949623;28;20515;-63
2021/03/28 14:42:27;;;;;;;7.20;2.97;;;19.20;65.80;;;;;;4949316;28;20035;-64
2021/03/28 14:45:13;;;;;;;6.30;2.85;;;19.20;65.80;;;;;;4965581;28;20358;-61
2021/03/28 14:48:17;;;;;;;8.05;2.88;;;19.20;65.80;;;;;;4966007;28;20134;-64
2021/03/28 14:50:55;;;;;;;4.50;2.17;;;19.20;65.80;;;;;;4948894;29;20079;-64
2021/03/28 14:54:02;;;;;;;7.32;2.95;;;19.20;65.80;;;;;;4939503;28;20038;-64
2021/03/28 14:56:40;;;;;;;4.05;2.22;;;19.10;65.70;;;;;;4966890;28;20059;-65
2021/03/28 14:59:20;;;;;;;6.32;2.53;;;19.20;65.80;;;;;;4969324;28;20058;-63
2021/03/28 15:02:05;;;;;;;7.53;2.88;;;19.20;65.80;;;;;;4968794;28;20039;-63
2021/03/28 15:04:50;;;;;;;7.88;3.33;;;19.10;65.60;;;;;;4987418;28;20041;-63
2021/03/28 15:07:50;;;;;;;5.07;2.75;;;19.20;66.20;;;;;;4986810;28;20050;-62
2021/03/28 15:10:28;;;;;;;4.10;2.38;;;19.10;65.50;;;;;;4988063;28;20550;-65
2021/03/28 15:13:03;;;;;;;9.70;2.92;;;19.10;65.50;;;;;;4987747;28;20073;-66
2021/03/28 15:16:22;;;;;;;8.93;3.28;;;19.00;65.20;;;;;;4976783;28;20043;-65
2021/03/28 15:18:51;;;;;;;6.65;3.13;;;19.00;64.60;;;;;;4932877;28;20497;-64
2021/03/28 15:21:24;;;;;;;8.65;3.15;;;18.80;64.40;;;;;;4966747;28;20249;-64
2021/03/28 15:24:07;;;;;;;15.18;3.47;;;18.70;64.00;;;;;;4967127;28;20126;-65
2021/03/28 15:26:52;;;;;;;11.43;4.03;;;18.50;63.50;;;;;;4966846;28;20058;-65
2021/03/28 15:29:28;;;;;;;11.70;4.72;;;18.40;63.50;;;;;;4967618;28;20105;-64
2021/03/28 15:32:38;;;;;;;9.45;4.80;;;18.30;63.40;;;;;;4968856;28;20038;-65
2021/03/28 15:35:16;;;;;;;17.42;5.32;;;18.30;63.60;;;;;;4881324;29;20485;-67
2021/03/28 15:38:13;;;;;;;21.13;5.50;;;18.30;63.40;;;;;;4948968;29;20050;-66
2021/03/28 15:40:55;;;;;;;18.75;5.32;;;18.20;63.30;;;;;;4948284;29;20090;-65
2021/03/28 15:43:49;;;;;;;14.05;4.25;;;18.20;63.60;;;;;;4937286;29;20094;-63
2021/03/28 15:46:30;;;;;;;9.63;3.88;;;18.20;63.70;;;;;;4948154;29;20342;-65
2021/03/28 15:49:20;;;;;;;14.45;4.72;;;18.30;63.90;;;;;;4957837;28;20518;-67
2021/03/28 15:52:16;;;;;;;10.90;4.38;;;18.30;63.90;;;;;;4967546;28;20031;-66
2021/03/28 15:55:07;;;;;;;11.30;3.90;;;18.40;64.00;;;;;;4950783;28;20131;-66
2021/03/28 15:58:04;;;;;;;10.85;3.90;;;18.30;63.90;;;;;;4950391;28;20070;-66
2021/03/28 16:00:38;;;;;;;11.98;4.15;;;18.30;63.90;;;;;;4948474;29;20043;-66
2021/03/28 16:03:22;;;;;;;10.23;4.38;;;18.30;64.00;;;;;;4968981;28;20069;-65
2021/03/28 16:06:27;;;;;;;9.98;4.53;;;18.20;64.00;;;;;;4986236;28;20547;-64
2021/03/28 16:09:08;;;;;;;10.48;3.92;;;18.20;64.10;;;;;;4987505;28;20039;-67
2021/03/28 16:12:09;;;;;;;8.50;3.67;;;18.10;64.10;;;;;;4985551;28;20505;-67
2021/03/28 16:14:35;;;;;;;10.68;3.95;;;18.00;64.00;;;;;;4985370;28;20042;-65
2021/03/28 16:17:29;;;;;;;9.10;4.65;;;18.00;64.20;;;;;;4985145;28;20633;-68
2021/03/28 16:20:01;;;;;;;11.13;4.05;;;18.00;64.40;;;;;;4984875;28;20108;-64
2021/03/28 16:22:50;;;;;;;11.48;4.25;;;17.90;64.30;;;;;;4985800;28;20042;-66
2021/03/28 16:25:37;;;;;;;8.40;3.88;;;17.90;64.50;;;;;;4986281;28;20137;-63
2021/03/28 16:28:19;;;;;;;7.55;3.78;;;17.90;64.50;;;;;;4986825;28;20145;-66
2021/03/28 16:30:56;;;;;;;6.03;3.35;;;17.90;64.60;;;;;;4985012;28;20424;-66
2021/03/28 16:33:54;;;;;;;9.82;4.15;;;17.90;64.70;;;;;;4969185;28;20034;-65
2021/03/28 16:36:39;;;;;;;9.15;3.67;;;17.90;64.70;;;;;;4985366;28;20038;-65
2021/03/28 16:39:16;;;;;;;7.00;3.17;;;17.80;64.60;;;;;;4984526;28;20035;-67
2021/03/28 16:42:11;;;;;;;9.55;3.35;;;17.80;64.70;;;;;;4984921;28;20741;-66
2021/03/28 16:45:19;;;;;;;12.35;4.45;;;17.70;64.70;;;;;;4987845;28;20031;-64
2021/03/28 16:47:51;;;;;;;8.55;4.03;;;17.70;64.70;;;;;;4987044;28;20074;-65
2021/03/28 16:50:21;;;;;;;10.43;4.13;;;17.70;64.80;;;;;;4986381;28;20100;-66
2021/03/28 16:52:52;;;;;;;8.10;3.10;;;17.70;64.80;;;;;;4985603;28;20051;-63
2021/03/28 16:55:26;;;;;;;10.70;3.25;;;17.60;64.70;;;;;;4985862;28;20039;-67
2021/03/28 16:58:00;;;;;;;7.90;3.25;;;17.60;64.80;;;;;;4985513;28;20440;-65
2021/03/28 17:00:32;;;;;;;10.73;3.30;;;17.50;64.70;;;;;;4986249;28;20038;-66
2021/03/28 17:03:22;;;;;;;8.40;3.60;;;17.50;64.80;;;;;;4987266;28;20034;-66
2021/03/28 17:06:09;;;;;;;8.45;3.25;;;17.50;65.00;;;;;;4986680;28;20053;-66
2021/03/28 17:08:43;;;;;;;8.68;3.75;;;17.40;64.90;;;;;;4986312;28;20042;-65
2021/03/28 17:11:25;;;;;;;8.93;3.72;;;17.40;65.00;;;;;;4986671;28;20049;-65
2021/03/28 17:13:52;;;;;;;11.02;3.45;;;17.40;65.10;;;;;;4986363;28;20035;-65
2021/03/28 17:16:22;;;;;;;8.93;3.67;;;17.30;65.00;;;;;;4985239;28;20108;-65
2021/03/28 17:19:11;;;;;;;7.40;3.10;;;17.40;65.30;;;;;;4984638;28;20046;-65
2021/03/28 17:21:45;;;;;;;7.95;3.30;;;17.30;65.10;;;;;;4986175;28;20050;-66
2021/03/28 17:24:39;;;;;;;13.23;4.10;;;17.30;65.10;;;;;;4968331;28;20038;-65
2021/03/28 17:27:24;;;;;;;;;;;17.30;65.20;;;;;;4982725;28;20054;-68
2021/03/28 17:29:56;;;;;;;11.70;3.97;;;17.30;65.20;;;;;;4984988;28;19909;-64
2021/03/28 17:32:25;;;;;;;16.63;4.32;;;17.30;65.20;;;;;;4968490;28;20069;-66
2021/03/28 17:35:13;;;;;;;10.23;3.50;;;17.30;65.60;;;;;;4984301;28;20497;-65
2021/03/28 17:37:39;;;;;;;9.90;4.03;;;17.30;65.40;;;;;;4968081;28;20083;-62
2021/03/28 17:40:28;;;;;;;12.15;3.75;;;17.30;65.40;;;;;;4984482;28;20097;-64
2021/03/28 17:43:02;;;;;;;8.80;3.13;;;17.40;65.70;;;;;;4968427;28;20141;-64
2021/03/28 17:45:29;;;;;;;11.50;4.07;;;17.30;65.50;;;;;;4985145;28;20551;-66
2021/03/28 17:48:10;;;;;;;14.63;4.88;;;17.40;65.40;;;;;;4977596;28;20055;-65
2021/03/28 17:50:36;;;;;;;13.68;4.10;;;17.30;64.50;;;;;;4965872;28;20050;-65
2021/03/28 17:53:22;;;;;;;14.05;4.35;;;17.20;64.10;;;;;;4966564;28;20035;-67
2021/03/28 17:56:15;;;;;;;21.38;5.53;;;17.10;63.50;;;;;;4965016;28;20113;-67
2021/03/28 17:58:55;;;;;;;13.35;4.75;;;16.90;63.20;;;;;;4948668;28;20043;-66
2021/03/28 18:01:33;;;;;;;17.83;4.72;;;16.90;63.30;;;;;;4966314;28;20947;-67
2021/03/28 18:04:17;;;;;;;14.23;4.13;;;16.70;63.00;;;;;;4965245;28;20085;-67
2021/03/28 18:06:43;;;;;;;13.93;3.72;;;16.70;63.10;;;;;;4964986;28;20142;-67
2021/03/28 18:09:34;;;;;;;13.25;3.83;;;16.60;63.10;;;;;;4963977;28;20191;-67
2021/03/28 18:12:01;;;;;;;13.73;3.95;;;16.60;63.10;;;;;;4964549;28;20141;-67
2021/03/28 18:14:35;;;;;;;9.65;4.05;;;16.50;63.00;;;;;;4964795;28;20039;-67
2021/03/28 18:17:04;;;;;;;12.02;3.45;;;16.50;63.10;;;;;;4966290;28;20506;-65
2021/03/28 18:19:32;;;;;;;10.48;3.70;;;16.40;63.00;;;;;;4951566;28;20070;-67
2021/03/28 18:22:04;;;;;;;10.55;3.45;;;16.40;63.00;;;;;;4955854;28;20047;-65
2021/03/28 18:24:36;;;;;;;9.80;4.15;;;16.30;63.00;;;;;;4941053;28;20051;-66
2021/03/28 18:27:10;;;;;;;9.57;3.80;;;16.30;63.20;;;;;;4949419;29;20138;-69
2021/03/28 18:30:05;;;;;;;11.65;3.83;;;16.30;63.50;;;;;;4950861;29;20047;-67